sensor_id;sensor_type;location;lat;lon;timestamp;temperature;humidity
1570;DHT22;778;50.120;8.698;2023-04-24T00:02:25;13.60;99.90
1570;DHT22;778;50.120;8.698;2023-04-24T00:04:54;13.70;99.90
1570;DHT22;778;50.120;8.698;2023-04-24T00:07:23;13.60;99.90
1570;DHT22;778;50.120;8.698;2023-04-24T00:09:51;13.60;99.90
1570;DHT22;778;50.120;8.698;2023-04-24T00:12:20;13.60;99.90
1570;DHT22;778;50.120;8.698;2023-04-24T00:14:48;13.60;99.90
1570;DHT22;778;50.120;8.698;2023-04-24T00:17:17;13.50;99.90
1570;DHT22;778;50.120;8.698;2023-04-24T00:19:49;13.60;99.90
1570;DHT22;778;50.120;8.698;2023-04-24T00:22:18;13.50;99.90
1570;DHT22;778;50.120;8.698;2023-04-24T00:24:47;13.60;99.90
1570;DHT22;778;50.120;8.698;2023-04-24T00:27:16;13.50;99.90
1570;DHT22;778;50.120;8.698;2023-04-24T00:29:44;13.60;99.90
1570;DHT22;778;50.120;8.698;2023-04-24T00:32:13;13.60;99.90
1570;DHT22;778;50.120;8.698;2023-04-24T00:34:42;13.40;99.90
1570;DHT22;778;50.120;8.698;2023-04-24T00:37:12;13.40;99.90
1570;DHT22;778;50.120;8.698;2023-04-24T00:39:43;13.50;99.90
1570;DHT22;778;50.120;8.698;2023-04-24T00:42:12;13.60;99.90
1570;DHT22;778;50.120;8.698;2023-04-24T00:44:41;13.50;99.90
1570;DHT22;778;50.120;8.698;2023-04-24T00:47:10;13.50;99.90
1570;DHT22;778;50.120;8.698;2023-04-24T00:49:40;13.50;99.90
1570;DHT22;778;50.120;8.698;2023-04-24T00:52:08;13.50;99.90
1570;DHT22;778;50.120;8.698;2023-04-24T00:54:39;13.40;99.90
1570;DHT22;778;50.120;8.698;2023-04-24T00:57:07;13.40;99.90
1570;DHT22;778;50.120;8.698;2023-04-24T00:59:36;13.50;99.90
1570;DHT22;778;50.120;8.698;2023-04-24T01:02:04;13.40;99.90
1570;DHT22;778;50.120;8.698;2023-04-24T01:04:34;13.50;99.90
1570;DHT22;778;50.120;8.698;2023-04-24T01:07:04;13.30;99.90
1570;DHT22;778;50.120;8.698;2023-04-24T01:09:38;13.40;99.90
1570;DHT22;778;50.120;8.698;2023-04-24T01:12:09;13.50;99.90
1570;DHT22;778;50.120;8.698;2023-04-24T01:14:37;13.60;99.90
1570;DHT22;778;50.120;8.698;2023-04-24T01:17:07;13.50;99.90
1570;DHT22;778;50.120;8.698;2023-04-24T01:19:36;13.50;99.90
1570;DHT22;778;50.120;8.698;2023-04-24T01:22:10;13.40;99.90
1570;DHT22;778;50.120;8.698;2023-04-24T01:24:39;13.40;99.90
1570;DHT22;778;50.120;8.698;2023-04-24T01:27:09;13.40;99.90
1570;DHT22;778;50.120;8.698;2023-04-24T01:29:38;13.40;99.90
1570;DHT22;778;50.120;8.698;2023-04-24T01:32:09;13.30;99.90
1570;DHT22;778;50.120;8.698;2023-04-24T01:34:38;13.10;99.90
1570;DHT22;778;50.120;8.698;2023-04-24T01:37:08;13.20;99.90
1570;DHT22;778;50.120;8.698;2023-04-24T01:39:37;13.10;99.90
1570;DHT22;778;50.120;8.698;2023-04-24T01:42:05;13.20;99.90
1570;DHT22;778;50.120;8.698;2023-04-24T01:44:35;13.10;99.90
1570;DHT22;778;50.120;8.698;2023-04-24T01:47:04;13.20;99.90
1570;DHT22;778;50.120;8.698;2023-04-24T01:49:33;13.10;99.90
1570;DHT22;778;50.120;8.698;2023-04-24T01:52:02;13.10;99.90
1570;DHT22;778;50.120;8.698;2023-04-24T01:54:32;13.10;99.90
1570;DHT22;778;50.120;8.698;2023-04-24T01:57:01;13.10;99.90
1570;DHT22;778;50.120;8.698;2023-04-24T01:59:30;13.10;99.90
1570;DHT22;778;50.120;8.698;2023-04-24T02:01:59;13.20;99.90
1570;DHT22;778;50.120;8.698;2023-04-24T02:04:28;13.20;99.90
1570;DHT22;778;50.120;8.698;2023-04-24T02:06:56;13.10;99.90
1570;DHT22;778;50.120;8.698;2023-04-24T02:09:25;13.10;99.90
1570;DHT22;778;50.120;8.698;2023-04-24T02:11:55;13.10;99.90
1570;DHT22;778;50.120;8.698;2023-04-24T02:14:23;13.10;99.90
1570;DHT22;778;50.120;8.698;2023-04-24T02:16:52;13.10;99.90
1570;DHT22;778;50.120;8.698;2023-04-24T02:19:21;13.10;99.90
1570;DHT22;778;50.120;8.698;2023-04-24T02:21:50;13.10;99.90
1570;DHT22;778;50.120;8.698;2023-04-24T02:24:18;13.10;99.90
1570;DHT22;778;50.120;8.698;2023-04-24T02:26:47;13.10;99.90
1570;DHT22;778;50.120;8.698;2023-04-24T02:29:17;13.10;99.90
1570;DHT22;778;50.120;8.698;2023-04-24T02:31:45;13.00;99.90
1570;DHT22;778;50.120;8.698;2023-04-24T02:34:14;13.00;99.90
1570;DHT22;778;50.120;8.698;2023-04-24T02:36:43;12.90;99.90
1570;DHT22;778;50.120;8.698;2023-04-24T02:39:11;12.80;99.90
1570;DHT22;778;50.120;8.698;2023-04-24T02:41:40;12.80;99.90
1570;DHT22;778;50.120;8.698;2023-04-24T02:44:08;12.80;99.90
1570;DHT22;778;50.120;8.698;2023-04-24T02:46:49;12.70;99.90
1570;DHT22;778;50.120;8.698;2023-04-24T02:49:17;12.70;99.90
1570;DHT22;778;50.120;8.698;2023-04-24T02:51:46;12.60;99.90
1570;DHT22;778;50.120;8.698;2023-04-24T02:54:14;12.70;99.90
1570;DHT22;778;50.120;8.698;2023-04-24T02:56:42;12.70;99.90
1570;DHT22;778;50.120;8.698;2023-04-24T02:59:11;12.70;99.90
1570;DHT22;778;50.120;8.698;2023-04-24T03:01:41;12.60;99.90
1570;DHT22;778;50.120;8.698;2023-04-24T03:04:09;12.70;99.90
1570;DHT22;778;50.120;8.698;2023-04-24T03:06:38;12.70;99.90
1570;DHT22;778;50.120;8.698;2023-04-24T03:09:07;12.60;99.90
1570;DHT22;778;50.120;8.698;2023-04-24T03:11:35;12.70;99.90
1570;DHT22;778;50.120;8.698;2023-04-24T03:14:04;12.60;99.90
1570;DHT22;778;50.120;8.698;2023-04-24T03:16:32;12.60;99.90
1570;DHT22;778;50.120;8.698;2023-04-24T03:19:02;12.60;99.90
1570;DHT22;778;50.120;8.698;2023-04-24T03:21:34;12.70;99.90
1570;DHT22;778;50.120;8.698;2023-04-24T03:24:07;12.70;99.90
1570;DHT22;778;50.120;8.698;2023-04-24T03:26:36;12.70;99.90
1570;DHT22;778;50.120;8.698;2023-04-24T03:29:18;12.70;99.90
1570;DHT22;778;50.120;8.698;2023-04-24T03:31:46;12.70;99.90
1570;DHT22;778;50.120;8.698;2023-04-24T03:34:16;12.70;99.90
1570;DHT22;778;50.120;8.698;2023-04-24T03:36:45;12.70;99.90
1570;DHT22;778;50.120;8.698;2023-04-24T03:39:15;12.60;99.90
1570;DHT22;778;50.120;8.698;2023-04-24T03:41:50;12.50;99.90
1570;DHT22;778;50.120;8.698;2023-04-24T03:44:23;12.60;99.90
1570;DHT22;778;50.120;8.698;2023-04-24T03:46:52;12.50;99.90
1570;DHT22;778;50.120;8.698;2023-04-24T03:49:24;12.60;99.90
1570;DHT22;778;50.120;8.698;2023-04-24T03:51:52;12.60;99.90
1570;DHT22;778;50.120;8.698;2023-04-24T03:54:23;12.50;99.90
1570;DHT22;778;50.120;8.698;2023-04-24T03:56:53;12.60;99.90
1570;DHT22;778;50.120;8.698;2023-04-24T03:59:23;12.60;99.90
1570;DHT22;778;50.120;8.698;2023-04-24T04:02:14;12.60;99.90
1570;DHT22;778;50.120;8.698;2023-04-24T04:04:44;12.60;99.90
1570;DHT22;778;50.120;8.698;2023-04-24T04:07:13;12.60;99.90
1570;DHT22;778;50.120;8.698;2023-04-24T04:09:41;12.60;99.90
1570;DHT22;778;50.120;8.698;2023-04-24T04:12:10;12.60;99.90
1570;DHT22;778;50.120;8.698;2023-04-24T04:14:39;12.60;99.90
1570;DHT22;778;50.120;8.698;2023-04-24T04:17:08;12.60;99.90
1570;DHT22;778;50.120;8.698;2023-04-24T04:19:36;12.50;99.90
1570;DHT22;778;50.120;8.698;2023-04-24T04:22:06;12.50;99.90
1570;DHT22;778;50.120;8.698;2023-04-24T04:24:40;12.50;99.90
1570;DHT22;778;50.120;8.698;2023-04-24T04:27:10;12.50;99.90
1570;DHT22;778;50.120;8.698;2023-04-24T04:29:52;12.40;99.90
1570;DHT22;778;50.120;8.698;2023-04-24T04:32:20;12.50;99.90
1570;DHT22;778;50.120;8.698;2023-04-24T04:34:49;12.50;99.90
1570;DHT22;778;50.120;8.698;2023-04-24T04:37:23;12.50;99.90
1570;DHT22;778;50.120;8.698;2023-04-24T04:40:19;12.40;99.90
1570;DHT22;778;50.120;8.698;2023-04-24T04:42:53;12.30;99.90
1570;DHT22;778;50.120;8.698;2023-04-24T04:45:24;12.20;99.90
1570;DHT22;778;50.120;8.698;2023-04-24T04:48:14;12.30;99.90
1570;DHT22;778;50.120;8.698;2023-04-24T04:50:45;12.30;99.90
1570;DHT22;778;50.120;8.698;2023-04-24T04:53:16;12.20;99.90
1570;DHT22;778;50.120;8.698;2023-04-24T04:55:44;12.10;99.90
1570;DHT22;778;50.120;8.698;2023-04-24T04:58:15;12.10;99.90
1570;DHT22;778;50.120;8.698;2023-04-24T05:00:45;12.20;99.90
1570;DHT22;778;50.120;8.698;2023-04-24T05:03:23;12.10;99.90
1570;DHT22;778;50.120;8.698;2023-04-24T05:05:57;12.10;99.90
1570;DHT22;778;50.120;8.698;2023-04-24T05:08:29;12.20;99.90
1570;DHT22;778;50.120;8.698;2023-04-24T05:10:58;12.40;99.90
1570;DHT22;778;50.120;8.698;2023-04-24T05:13:29;12.50;99.90
1570;DHT22;778;50.120;8.698;2023-04-24T05:16:19;12.50;99.90
1570;DHT22;778;50.120;8.698;2023-04-24T05:18:49;12.60;99.90
1570;DHT22;778;50.120;8.698;2023-04-24T05:21:22;12.70;99.90
1570;DHT22;778;50.120;8.698;2023-04-24T05:23:53;12.80;99.90
1570;DHT22;778;50.120;8.698;2023-04-24T05:26:35;13.10;99.90
1570;DHT22;778;50.120;8.698;2023-04-24T05:29:04;13.20;99.90
1570;DHT22;778;50.120;8.698;2023-04-24T05:31:32;13.20;99.90
1570;DHT22;778;50.120;8.698;2023-04-24T05:34:01;13.10;99.90
1570;DHT22;778;50.120;8.698;2023-04-24T05:36:30;12.70;99.90
1570;DHT22;778;50.120;8.698;2023-04-24T05:39:00;12.60;99.90
1570;DHT22;778;50.120;8.698;2023-04-24T05:41:28;12.70;99.90
1570;DHT22;778;50.120;8.698;2023-04-24T05:43:56;12.50;99.90
1570;DHT22;778;50.120;8.698;2023-04-24T05:46:26;12.30;99.90
1570;DHT22;778;50.120;8.698;2023-04-24T05:48:55;12.30;99.90
1570;DHT22;778;50.120;8.698;2023-04-24T05:51:24;12.40;99.90
1570;DHT22;778;50.120;8.698;2023-04-24T05:53:53;12.20;99.90
1570;DHT22;778;50.120;8.698;2023-04-24T05:56:23;12.40;99.90
1570;DHT22;778;50.120;8.698;2023-04-24T05:58:51;12.50;99.90
1570;DHT22;778;50.120;8.698;2023-04-24T06:01:20;12.50;99.90
1570;DHT22;778;50.120;8.698;2023-04-24T06:03:56;12.80;99.90
1570;DHT22;778;50.120;8.698;2023-04-24T06:06:25;12.90;99.90
1570;DHT22;778;50.120;8.698;2023-04-24T06:08:54;12.80;99.90
1570;DHT22;778;50.120;8.698;2023-04-24T06:11:26;13.00;99.90
1570;DHT22;778;50.120;8.698;2023-04-24T06:13:54;13.00;99.90
1570;DHT22;778;50.120;8.698;2023-04-24T06:16:52;13.10;99.90
1570;DHT22;778;50.120;8.698;2023-04-24T06:19:31;13.10;99.90
1570;DHT22;778;50.120;8.698;2023-04-24T06:21:59;13.40;99.90
1570;DHT22;778;50.120;8.698;2023-04-24T06:24:28;13.50;99.90
1570;DHT22;778;50.120;8.698;2023-04-24T06:26:59;13.70;99.90
1570;DHT22;778;50.120;8.698;2023-04-24T06:29:28;13.80;99.90
1570;DHT22;778;50.120;8.698;2023-04-24T06:31:56;13.90;99.90
1570;DHT22;778;50.120;8.698;2023-04-24T06:34:25;14.10;99.90
1570;DHT22;778;50.120;8.698;2023-04-24T06:36:54;14.40;99.90
1570;DHT22;778;50.120;8.698;2023-04-24T06:39:22;14.60;99.90
1570;DHT22;778;50.120;8.698;2023-04-24T06:41:51;14.70;99.90
1570;DHT22;778;50.120;8.698;2023-04-24T06:44:21;14.60;99.90
1570;DHT22;778;50.120;8.698;2023-04-24T06:46:49;14.60;99.90
1570;DHT22;778;50.120;8.698;2023-04-24T06:49:18;14.20;99.90
1570;DHT22;778;50.120;8.698;2023-04-24T06:51:46;14.60;99.90
1570;DHT22;778;50.120;8.698;2023-04-24T06:54:15;15.30;99.90
1570;DHT22;778;50.120;8.698;2023-04-24T06:56:43;15.40;99.90
1570;DHT22;778;50.120;8.698;2023-04-24T06:59:13;15.30;99.90
1570;DHT22;778;50.120;8.698;2023-04-24T07:01:43;15.40;99.90
1570;DHT22;778;50.120;8.698;2023-04-24T07:04:11;15.40;99.90
1570;DHT22;778;50.120;8.698;2023-04-24T07:06:40;15.60;99.90
1570;DHT22;778;50.120;8.698;2023-04-24T07:09:09;15.80;99.90
1570;DHT22;778;50.120;8.698;2023-04-24T07:11:37;16.00;99.90
1570;DHT22;778;50.120;8.698;2023-04-24T07:14:07;15.80;99.90
1570;DHT22;778;50.120;8.698;2023-04-24T07:16:36;16.10;99.90
1570;DHT22;778;50.120;8.698;2023-04-24T07:19:06;16.50;99.50
1570;DHT22;778;50.120;8.698;2023-04-24T07:21:34;16.30;99.30
1570;DHT22;778;50.120;8.698;2023-04-24T07:24:03;16.20;99.40
1570;DHT22;778;50.120;8.698;2023-04-24T07:26:31;15.90;99.90
1570;DHT22;778;50.120;8.698;2023-04-24T07:29:00;16.20;99.40
1570;DHT22;778;50.120;8.698;2023-04-24T07:31:28;16.40;98.80
1570;DHT22;778;50.120;8.698;2023-04-24T07:33:57;15.70;99.10
1570;DHT22;778;50.120;8.698;2023-04-24T07:36:27;14.90;99.90
1570;DHT22;778;50.120;8.698;2023-04-24T07:38:55;14.50;99.90
1570;DHT22;778;50.120;8.698;2023-04-24T07:41:24;14.50;99.90
1570;DHT22;778;50.120;8.698;2023-04-24T07:43:54;14.60;99.90
1570;DHT22;778;50.120;8.698;2023-04-24T07:46:22;15.10;99.90
1570;DHT22;778;50.120;8.698;2023-04-24T07:48:51;15.00;99.90
1570;DHT22;778;50.120;8.698;2023-04-24T07:51:40;15.50;99.90
1570;DHT22;778;50.120;8.698;2023-04-24T07:54:09;16.10;99.90
1570;DHT22;778;50.120;8.698;2023-04-24T07:56:38;16.20;98.10
1570;DHT22;778;50.120;8.698;2023-04-24T07:59:06;15.60;98.40
1570;DHT22;778;50.120;8.698;2023-04-24T08:01:36;15.40;99.90
1570;DHT22;778;50.120;8.698;2023-04-24T08:04:05;15.00;99.90
1570;DHT22;778;50.120;8.698;2023-04-24T08:06:34;14.50;99.90
1570;DHT22;778;50.120;8.698;2023-04-24T08:09:04;14.40;99.90
1570;DHT22;778;50.120;8.698;2023-04-24T08:11:32;13.90;99.90
1570;DHT22;778;50.120;8.698;2023-04-24T08:14:00;14.50;99.90
1570;DHT22;778;50.120;8.698;2023-04-24T08:16:29;14.70;99.90
1570;DHT22;778;50.120;8.698;2023-04-24T08:18:57;14.80;99.90
1570;DHT22;778;50.120;8.698;2023-04-24T08:21:26;14.70;99.90
1570;DHT22;778;50.120;8.698;2023-04-24T08:23:54;14.70;99.90
1570;DHT22;778;50.120;8.698;2023-04-24T08:26:24;15.20;99.90
1570;DHT22;778;50.120;8.698;2023-04-24T08:28:53;15.60;99.90
1570;DHT22;778;50.120;8.698;2023-04-24T08:31:24;16.40;98.90
1570;DHT22;778;50.120;8.698;2023-04-24T08:33:53;16.90;95.30
1570;DHT22;778;50.120;8.698;2023-04-24T08:36:22;17.20;93.20
1570;DHT22;778;50.120;8.698;2023-04-24T08:38:58;17.80;91.20
1570;DHT22;778;50.120;8.698;2023-04-24T08:41:28;17.70;90.10
1570;DHT22;778;50.120;8.698;2023-04-24T08:43:58;17.00;88.00
1570;DHT22;778;50.120;8.698;2023-04-24T08:46:27;16.70;90.20
1570;DHT22;778;50.120;8.698;2023-04-24T08:48:56;16.90;89.40
1570;DHT22;778;50.120;8.698;2023-04-24T08:51:29;16.60;90.20
1570;DHT22;778;50.120;8.698;2023-04-24T08:54:04;16.00;90.60
1570;DHT22;778;50.120;8.698;2023-04-24T08:56:36;15.40;92.70
1570;DHT22;778;50.120;8.698;2023-04-24T08:59:06;15.30;94.90
1570;DHT22;778;50.120;8.698;2023-04-24T09:01:37;15.20;95.90
1570;DHT22;778;50.120;8.698;2023-04-24T09:04:08;14.90;95.80
1570;DHT22;778;50.120;8.698;2023-04-24T09:06:39;14.60;97.00
1570;DHT22;778;50.120;8.698;2023-04-24T09:09:08;14.50;99.70
1570;DHT22;778;50.120;8.698;2023-04-24T09:11:40;14.50;99.90
1570;DHT22;778;50.120;8.698;2023-04-24T09:14:09;14.10;99.90
1570;DHT22;778;50.120;8.698;2023-04-24T09:16:38;13.90;99.90
1570;DHT22;778;50.120;8.698;2023-04-24T09:19:07;13.90;99.90
1570;DHT22;778;50.120;8.698;2023-04-24T09:21:36;14.00;99.90
1570;DHT22;778;50.120;8.698;2023-04-24T09:24:06;13.80;99.90
1570;DHT22;778;50.120;8.698;2023-04-24T09:26:36;13.80;99.90
1570;DHT22;778;50.120;8.698;2023-04-24T09:29:06;13.90;99.90
1570;DHT22;778;50.120;8.698;2023-04-24T09:31:34;14.00;99.90
1570;DHT22;778;50.120;8.698;2023-04-24T09:34:04;13.90;99.90
1570;DHT22;778;50.120;8.698;2023-04-24T09:36:35;13.70;99.90
1570;DHT22;778;50.120;8.698;2023-04-24T09:39:06;13.60;99.90
1570;DHT22;778;50.120;8.698;2023-04-24T09:41:44;13.70;99.90
1570;DHT22;778;50.120;8.698;2023-04-24T09:44:15;13.80;99.90
1570;DHT22;778;50.120;8.698;2023-04-24T09:46:46;13.80;99.90
1570;DHT22;778;50.120;8.698;2023-04-24T09:49:23;13.70;99.90
1570;DHT22;778;50.120;8.698;2023-04-24T09:51:53;13.50;99.90
1570;DHT22;778;50.120;8.698;2023-04-24T09:54:30;13.60;99.90
1570;DHT22;778;50.120;8.698;2023-04-24T09:56:59;13.60;99.90
1570;DHT22;778;50.120;8.698;2023-04-24T09:59:29;13.50;99.90
1570;DHT22;778;50.120;8.698;2023-04-24T10:01:59;13.50;99.90
1570;DHT22;778;50.120;8.698;2023-04-24T10:04:29;13.20;99.90
1570;DHT22;778;50.120;8.698;2023-04-24T10:06:57;13.30;99.90
1570;DHT22;778;50.120;8.698;2023-04-24T10:09:27;13.30;99.90
1570;DHT22;778;50.120;8.698;2023-04-24T10:11:56;13.30;99.90
1570;DHT22;778;50.120;8.698;2023-04-24T10:14:25;13.30;99.90
1570;DHT22;778;50.120;8.698;2023-04-24T10:16:55;13.60;99.90
1570;DHT22;778;50.120;8.698;2023-04-24T10:19:26;13.40;99.90
1570;DHT22;778;50.120;8.698;2023-04-24T10:21:54;13.40;99.90
1570;DHT22;778;50.120;8.698;2023-04-24T10:24:24;13.40;99.90
1570;DHT22;778;50.120;8.698;2023-04-24T10:26:53;13.40;99.90
1570;DHT22;778;50.120;8.698;2023-04-24T10:29:24;13.00;99.90
1570;DHT22;778;50.120;8.698;2023-04-24T10:31:55;13.00;99.90
1570;DHT22;778;50.120;8.698;2023-04-24T10:34:24;13.10;99.90
1570;DHT22;778;50.120;8.698;2023-04-24T10:36:53;12.90;99.90
1570;DHT22;778;50.120;8.698;2023-04-24T10:39:24;13.10;99.90
1570;DHT22;778;50.120;8.698;2023-04-24T10:41:54;12.80;99.90
1570;DHT22;778;50.120;8.698;2023-04-24T10:44:25;12.70;99.90
1570;DHT22;778;50.120;8.698;2023-04-24T10:46:55;12.80;99.90
1570;DHT22;778;50.120;8.698;2023-04-24T10:49:29;12.70;99.90
1570;DHT22;778;50.120;8.698;2023-04-24T10:52:01;12.80;99.90
1570;DHT22;778;50.120;8.698;2023-04-24T10:54:35;13.00;99.90
1570;DHT22;778;50.120;8.698;2023-04-24T10:57:26;12.90;99.90
1570;DHT22;778;50.120;8.698;2023-04-24T11:00:13;12.90;99.90
1570;DHT22;778;50.120;8.698;2023-04-24T11:02:46;12.80;99.90
1570;DHT22;778;50.120;8.698;2023-04-24T11:05:21;12.80;99.90
1570;DHT22;778;50.120;8.698;2023-04-24T11:08:12;12.90;99.90
1570;DHT22;778;50.120;8.698;2023-04-24T11:10:44;13.10;99.90
1570;DHT22;778;50.120;8.698;2023-04-24T11:13:15;13.40;99.90
1570;DHT22;778;50.120;8.698;2023-04-24T11:15:44;13.50;99.90
1570;DHT22;778;50.120;8.698;2023-04-24T11:18:15;13.70;99.90
1570;DHT22;778;50.120;8.698;2023-04-24T11:20:43;13.90;99.90
1570;DHT22;778;50.120;8.698;2023-04-24T11:23:13;14.30;99.90
1570;DHT22;778;50.120;8.698;2023-04-24T11:25:42;14.30;99.90
1570;DHT22;778;50.120;8.698;2023-04-24T11:28:14;14.00;99.90
1570;DHT22;778;50.120;8.698;2023-04-24T11:30:44;14.40;99.90
1570;DHT22;778;50.120;8.698;2023-04-24T11:33:21;14.40;99.90
1570;DHT22;778;50.120;8.698;2023-04-24T11:35:51;14.50;99.90
1570;DHT22;778;50.120;8.698;2023-04-24T11:38:20;14.50;99.90
1570;DHT22;778;50.120;8.698;2023-04-24T11:40:51;14.50;99.90
1570;DHT22;778;50.120;8.698;2023-04-24T11:43:20;14.40;99.90
1570;DHT22;778;50.120;8.698;2023-04-24T11:45:50;14.70;99.90
1570;DHT22;778;50.120;8.698;2023-04-24T11:48:20;14.90;99.90
1570;DHT22;778;50.120;8.698;2023-04-24T11:50:50;15.00;99.90
1570;DHT22;778;50.120;8.698;2023-04-24T11:53:22;14.80;99.90
1570;DHT22;778;50.120;8.698;2023-04-24T11:55:51;14.90;99.90
1570;DHT22;778;50.120;8.698;2023-04-24T11:58:21;15.00;99.90
1570;DHT22;778;50.120;8.698;2023-04-24T12:00:56;15.00;99.90
1570;DHT22;778;50.120;8.698;2023-04-24T12:03:29;14.80;99.90
1570;DHT22;778;50.120;8.698;2023-04-24T12:06:05;14.60;99.90
1570;DHT22;778;50.120;8.698;2023-04-24T12:08:35;14.70;99.90
1570;DHT22;778;50.120;8.698;2023-04-24T12:11:06;14.80;99.90
1570;DHT22;778;50.120;8.698;2023-04-24T12:13:35;14.30;99.90
1570;DHT22;778;50.120;8.698;2023-04-24T12:16:04;14.20;99.90
1570;DHT22;778;50.120;8.698;2023-04-24T12:18:34;14.30;99.90
1570;DHT22;778;50.120;8.698;2023-04-24T12:21:19;14.10;99.90
1570;DHT22;778;50.120;8.698;2023-04-24T12:23:49;14.10;99.90
1570;DHT22;778;50.120;8.698;2023-04-24T12:26:19;13.80;99.90
1570;DHT22;778;50.120;8.698;2023-04-24T12:28:49;13.40;99.90
1570;DHT22;778;50.120;8.698;2023-04-24T12:31:21;13.20;99.90
1570;DHT22;778;50.120;8.698;2023-04-24T12:33:52;13.10;99.90
1570;DHT22;778;50.120;8.698;2023-04-24T12:36:21;13.10;99.90
1570;DHT22;778;50.120;8.698;2023-04-24T12:38:53;13.30;99.90
1570;DHT22;778;50.120;8.698;2023-04-24T12:41:21;13.50;99.90
1570;DHT22;778;50.120;8.698;2023-04-24T12:43:53;13.70;99.90
1570;DHT22;778;50.120;8.698;2023-04-24T12:46:24;13.80;99.90
1570;DHT22;778;50.120;8.698;2023-04-24T12:48:54;13.90;99.90
1570;DHT22;778;50.120;8.698;2023-04-24T12:51:23;14.00;99.90
1570;DHT22;778;50.120;8.698;2023-04-24T12:53:52;14.00;99.90
1570;DHT22;778;50.120;8.698;2023-04-24T12:56:22;14.20;99.90
1570;DHT22;778;50.120;8.698;2023-04-24T12:58:51;14.40;99.90
1570;DHT22;778;50.120;8.698;2023-04-24T13:01:19;14.20;99.90
1570;DHT22;778;50.120;8.698;2023-04-24T13:03:48;14.10;99.90
1570;DHT22;778;50.120;8.698;2023-04-24T13:06:18;14.10;99.90
1570;DHT22;778;50.120;8.698;2023-04-24T13:08:47;14.30;99.90
1570;DHT22;778;50.120;8.698;2023-04-24T13:11:16;14.50;99.90
1570;DHT22;778;50.120;8.698;2023-04-24T13:13:44;14.70;99.90
1570;DHT22;778;50.120;8.698;2023-04-24T13:16:13;14.70;99.90
1570;DHT22;778;50.120;8.698;2023-04-24T13:18:41;14.70;99.90
1570;DHT22;778;50.120;8.698;2023-04-24T13:21:10;14.70;99.90
1570;DHT22;778;50.120;8.698;2023-04-24T13:23:42;14.80;99.90
1570;DHT22;778;50.120;8.698;2023-04-24T13:26:11;14.70;99.90
1570;DHT22;778;50.120;8.698;2023-04-24T13:28:39;14.70;99.90
1570;DHT22;778;50.120;8.698;2023-04-24T13:31:08;14.70;99.90
1570;DHT22;778;50.120;8.698;2023-04-24T13:33:36;14.40;99.90
1570;DHT22;778;50.120;8.698;2023-04-24T13:36:05;14.50;99.90
1570;DHT22;778;50.120;8.698;2023-04-24T13:38:34;14.70;99.90
1570;DHT22;778;50.120;8.698;2023-04-24T13:41:04;14.70;99.90
1570;DHT22;778;50.120;8.698;2023-04-24T13:43:32;14.60;99.90
1570;DHT22;778;50.120;8.698;2023-04-24T13:46:02;14.40;99.90
1570;DHT22;778;50.120;8.698;2023-04-24T13:48:30;14.10;99.90
1570;DHT22;778;50.120;8.698;2023-04-24T13:50:59;14.00;99.90
1570;DHT22;778;50.120;8.698;2023-04-24T13:53:27;13.80;99.90
1570;DHT22;778;50.120;8.698;2023-04-24T13:55:55;13.70;99.90
1570;DHT22;778;50.120;8.698;2023-04-24T13:58:26;13.70;99.90
1570;DHT22;778;50.120;8.698;2023-04-24T14:00:55;13.90;99.90
1570;DHT22;778;50.120;8.698;2023-04-24T14:03:23;14.00;99.90
1570;DHT22;778;50.120;8.698;2023-04-24T14:05:52;14.00;99.90
1570;DHT22;778;50.120;8.698;2023-04-24T14:08:21;14.10;99.90
1570;DHT22;778;50.120;8.698;2023-04-24T14:10:50;14.00;99.90
1570;DHT22;778;50.120;8.698;2023-04-24T14:13:18;14.10;99.90
1570;DHT22;778;50.120;8.698;2023-04-24T14:15:48;14.20;99.90
1570;DHT22;778;50.120;8.698;2023-04-24T14:18:17;14.40;99.90
1570;DHT22;778;50.120;8.698;2023-04-24T14:20:45;14.70;99.90
1570;DHT22;778;50.120;8.698;2023-04-24T14:23:14;14.80;99.90
1570;DHT22;778;50.120;8.698;2023-04-24T14:25:44;14.70;99.90
1570;DHT22;778;50.120;8.698;2023-04-24T14:28:15;14.70;99.90
1570;DHT22;778;50.120;8.698;2023-04-24T14:30:43;14.70;99.90
1570;DHT22;778;50.120;8.698;2023-04-24T14:33:13;14.80;99.90
1570;DHT22;778;50.120;8.698;2023-04-24T14:35:42;14.80;99.90
1570;DHT22;778;50.120;8.698;2023-04-24T14:38:11;14.90;99.90
1570;DHT22;778;50.120;8.698;2023-04-24T14:40:40;14.80;99.90
1570;DHT22;778;50.120;8.698;2023-04-24T14:43:28;14.60;99.90
1570;DHT22;778;50.120;8.698;2023-04-24T14:45:56;14.70;99.90
1570;DHT22;778;50.120;8.698;2023-04-24T14:48:26;14.70;99.90
1570;DHT22;778;50.120;8.698;2023-04-24T14:50:54;14.80;99.90
1570;DHT22;778;50.120;8.698;2023-04-24T14:53:23;14.50;99.90
1570;DHT22;778;50.120;8.698;2023-04-24T14:55:51;14.30;99.90
1570;DHT22;778;50.120;8.698;2023-04-24T14:58:20;14.20;99.90
1570;DHT22;778;50.120;8.698;2023-04-24T15:00:48;14.10;99.90
1570;DHT22;778;50.120;8.698;2023-04-24T15:03:18;14.30;99.90
1570;DHT22;778;50.120;8.698;2023-04-24T15:05:50;14.30;99.90
1570;DHT22;778;50.120;8.698;2023-04-24T15:08:18;14.50;99.90
1570;DHT22;778;50.120;8.698;2023-04-24T15:10:47;14.50;99.90
1570;DHT22;778;50.120;8.698;2023-04-24T15:13:16;14.60;99.90
1570;DHT22;778;50.120;8.698;2023-04-24T15:15:46;14.70;99.90
1570;DHT22;778;50.120;8.698;2023-04-24T15:18:14;14.70;99.90
1570;DHT22;778;50.120;8.698;2023-04-24T15:20:43;14.70;99.90
1570;DHT22;778;50.120;8.698;2023-04-24T15:23:13;14.60;99.90
1570;DHT22;778;50.120;8.698;2023-04-24T15:25:41;14.60;99.90
1570;DHT22;778;50.120;8.698;2023-04-24T15:28:09;14.50;99.90
1570;DHT22;778;50.120;8.698;2023-04-24T15:30:38;14.60;99.90
1570;DHT22;778;50.120;8.698;2023-04-24T15:33:08;14.50;99.90
1570;DHT22;778;50.120;8.698;2023-04-24T15:35:37;14.50;99.90
1570;DHT22;778;50.120;8.698;2023-04-24T15:38:05;14.40;99.90
1570;DHT22;778;50.120;8.698;2023-04-24T15:40:36;14.30;99.90
1570;DHT22;778;50.120;8.698;2023-04-24T15:43:05;14.40;99.90
1570;DHT22;778;50.120;8.698;2023-04-24T15:45:33;14.40;99.90
1570;DHT22;778;50.120;8.698;2023-04-24T15:48:02;14.40;99.90
1570;DHT22;778;50.120;8.698;2023-04-24T15:50:31;14.40;99.90
1570;DHT22;778;50.120;8.698;2023-04-24T15:52:59;14.60;99.90
1570;DHT22;778;50.120;8.698;2023-04-24T15:55:28;14.50;99.90
1570;DHT22;778;50.120;8.698;2023-04-24T15:57:58;14.50;99.90
1570;DHT22;778;50.120;8.698;2023-04-24T16:00:27;14.50;99.90
1570;DHT22;778;50.120;8.698;2023-04-24T16:03:00;14.40;99.90
1570;DHT22;778;50.120;8.698;2023-04-24T16:05:29;14.50;99.90
1570;DHT22;778;50.120;8.698;2023-04-24T16:07:58;14.30;99.90
1570;DHT22;778;50.120;8.698;2023-04-24T16:10:26;14.50;99.90
1570;DHT22;778;50.120;8.698;2023-04-24T16:12:55;14.30;99.90
1570;DHT22;778;50.120;8.698;2023-04-24T16:15:25;14.50;99.90
1570;DHT22;778;50.120;8.698;2023-04-24T16:17:54;14.40;99.90
1570;DHT22;778;50.120;8.698;2023-04-24T16:20:23;14.50;99.90
1570;DHT22;778;50.120;8.698;2023-04-24T16:22:51;14.60;99.90
1570;DHT22;778;50.120;8.698;2023-04-24T16:25:19;14.60;99.90
1570;DHT22;778;50.120;8.698;2023-04-24T16:27:49;14.60;99.90
1570;DHT22;778;50.120;8.698;2023-04-24T16:30:18;14.60;99.90
1570;DHT22;778;50.120;8.698;2023-04-24T16:32:48;14.60;99.90
1570;DHT22;778;50.120;8.698;2023-04-24T16:35:17;14.60;99.90
1570;DHT22;778;50.120;8.698;2023-04-24T16:37:45;14.60;99.90